sensor_id;sensor_type;location;lat;lon;timestamp;pressure;altitude;pressure_sealevel;temperature;humidity
17615;BME280;8926;49.720;6.576;2023-09-30T00:01:35;100638.09;;;16.08;86.14
17615;BME280;8926;49.720;6.576;2023-09-30T00:04:01;100634.53;;;16.09;85.80
17615;BME280;8926;49.720;6.576;2023-09-30T00:06:27;100641.50;;;16.10;85.96
17615;BME280;8926;49.720;6.576;2023-09-30T00:08:53;100642.19;;;16.12;85.88
17615;BME280;8926;49.720;6.576;2023-09-30T00:11:18;100648.97;;;16.16;85.89
17615;BME280;8926;49.720;6.576;2023-09-30T00:13:44;100644.53;;;16.17;85.78
17615;BME280;8926;49.720;6.576;2023-09-30T00:16:10;100644.44;;;16.18;85.74
17615;BME280;8926;49.720;6.576;2023-09-30T00:18:36;100641.81;;;16.18;85.68
17615;BME280;8926;49.720;6.576;2023-09-30T00:21:01;100651.59;;;16.16;85.70
17615;BME280;8926;49.720;6.576;2023-09-30T00:23:27;100651.19;;;16.10;85.30
17615;BME280;8926;49.720;6.576;2023-09-30T00:25:54;100648.75;;;16.07;85.05
17615;BME280;8926;49.720;6.576;2023-09-30T00:28:19;100650.06;;;16.00;85.23
17615;BME280;8926;49.720;6.576;2023-09-30T00:30:44;100665.25;;;15.96;84.67
17615;BME280;8926;49.720;6.576;2023-09-30T00:33:12;100676.16;;;15.90;84.69
17615;BME280;8926;49.720;6.576;2023-09-30T00:35:38;100669.19;;;15.89;84.71
17615;BME280;8926;49.720;6.576;2023-09-30T00:38:03;100673.94;;;15.84;85.15
17615;BME280;8926;49.720;6.576;2023-09-30T00:40:28;100673.38;;;15.79;85.42
17615;BME280;8926;49.720;6.576;2023-09-30T00:42:54;100663.22;;;15.73;85.33
17615;BME280;8926;49.720;6.576;2023-09-30T00:45:21;100663.41;;;15.70;85.68
17615;BME280;8926;49.720;6.576;2023-09-30T00:47:46;100677.53;;;15.69;86.06
17615;BME280;8926;49.720;6.576;2023-09-30T00:50:12;100680.91;;;15.71;85.27
17615;BME280;8926;49.720;6.576;2023-09-30T00:52:38;100673.59;;;15.61;85.28
17615;BME280;8926;49.720;6.576;2023-09-30T00:55:05;100678.31;;;15.56;84.71
17615;BME280;8926;49.720;6.576;2023-09-30T00:57:31;100673.38;;;15.50;85.47
17615;BME280;8926;49.720;6.576;2023-09-30T00:59:57;100676.97;;;15.49;85.82
17615;BME280;8926;49.720;6.576;2023-09-30T01:02:22;100671.69;;;15.49;86.25
17615;BME280;8926;49.720;6.576;2023-09-30T01:04:48;100673.38;;;15.50;85.53
17615;BME280;8926;49.720;6.576;2023-09-30T01:07:13;100680.16;;;15.40;85.74
17615;BME280;8926;49.720;6.576;2023-09-30T01:09:39;100675.84;;;15.39;85.23
17615;BME280;8926;49.720;6.576;2023-09-30T01:12:04;100671.78;;;15.34;85.38
17615;BME280;8926;49.720;6.576;2023-09-30T01:14:31;100669.47;;;15.29;85.55
17615;BME280;8926;49.720;6.576;2023-09-30T01:16:57;100664.09;;;15.31;85.62
17615;BME280;8926;49.720;6.576;2023-09-30T01:19:23;100660.81;;;15.27;85.64
17615;BME280;8926;49.720;6.576;2023-09-30T01:21:57;100661.19;;;15.21;86.09
17615;BME280;8926;49.720;6.576;2023-09-30T01:24:25;100656.56;;;15.24;85.87
17615;BME280;8926;49.720;6.576;2023-09-30T01:26:50;100654.69;;;15.26;86.06
17615;BME280;8926;49.720;6.576;2023-09-30T01:29:16;100665.22;;;15.26;85.64
17615;BME280;8926;49.720;6.576;2023-09-30T01:31:42;100671.72;;;15.21;85.84
17615;BME280;8926;49.720;6.576;2023-09-30T01:34:08;100667.28;;;15.21;85.77
17615;BME280;8926;49.720;6.576;2023-09-30T01:36:33;100666.44;;;15.21;84.75
17615;BME280;8926;49.720;6.576;2023-09-30T01:38:59;100677.34;;;15.15;85.05
17615;BME280;8926;49.720;6.576;2023-09-30T01:41:26;100671.41;;;15.11;84.69
17615;BME280;8926;49.720;6.576;2023-09-30T01:43:51;100679.78;;;15.04;85.23
17615;BME280;8926;49.720;6.576;2023-09-30T01:46:17;100684.75;;;14.94;85.17
17615;BME280;8926;49.720;6.576;2023-09-30T01:48:42;100692.06;;;14.89;85.46
17615;BME280;8926;49.720;6.576;2023-09-30T01:51:08;100695.72;;;14.86;85.80
17615;BME280;8926;49.720;6.576;2023-09-30T01:53:33;100691.41;;;14.85;86.03
17615;BME280;8926;49.720;6.576;2023-09-30T01:55:59;100688.00;;;14.83;86.24
17615;BME280;8926;49.720;6.576;2023-09-30T01:58:24;100684.44;;;14.84;85.65
17615;BME280;8926;49.720;6.576;2023-09-30T02:00:51;100681.25;;;14.79;85.19
17615;BME280;8926;49.720;6.576;2023-09-30T02:03:17;100687.63;;;14.75;85.11
17615;BME280;8926;49.720;6.576;2023-09-30T02:05:42;100692.22;;;14.72;85.58
17615;BME280;8926;49.720;6.576;2023-09-30T02:08:08;100703.00;;;14.67;85.61
17615;BME280;8926;49.720;6.576;2023-09-30T02:10:33;100699.78;;;14.62;86.93
17615;BME280;8926;49.720;6.576;2023-09-30T02:12:59;100695.56;;;14.59;86.96
17615;BME280;8926;49.720;6.576;2023-09-30T02:15:25;100686.81;;;14.59;86.75
17615;BME280;8926;49.720;6.576;2023-09-30T02:17:51;100682.50;;;14.58;87.05
17615;BME280;8926;49.720;6.576;2023-09-30T02:20:17;100679.09;;;14.56;86.84
17615;BME280;8926;49.720;6.576;2023-09-30T02:22:45;100679.09;;;14.56;86.86
17615;BME280;8926;49.720;6.576;2023-09-30T02:25:11;100679.88;;;14.58;86.39
17615;BME280;8926;49.720;6.576;2023-09-30T02:27:39;100677.22;;;14.58;85.97
17615;BME280;8926;49.720;6.576;2023-09-30T02:30:04;100674.69;;;14.56;86.17
17615;BME280;8926;49.720;6.576;2023-09-30T02:32:31;100677.06;;;14.61;86.41
17615;BME280;8926;49.720;6.576;2023-09-30T02:34:58;100675.19;;;14.63;86.31
17615;BME280;8926;49.720;6.576;2023-09-30T02:37:23;100692.47;;;14.67;86.37
17615;BME280;8926;49.720;6.576;2023-09-30T02:39:48;100688.91;;;14.68;86.60
17615;BME280;8926;49.720;6.576;2023-09-30T02:42:14;100700.19;;;14.70;86.72
17615;BME280;8926;49.720;6.576;2023-09-30T02:44:40;100699.09;;;14.74;87.01
17615;BME280;8926;49.720;6.576;2023-09-30T02:47:05;100695.53;;;14.75;86.87
17615;BME280;8926;49.720;6.576;2023-09-30T02:49:32;100685.00;;;14.75;87.52
17615;BME280;8926;49.720;6.576;2023-09-30T02:51:58;100688.56;;;14.74;87.12
17615;BME280;8926;49.720;6.576;2023-09-30T02:54:23;100684.91;;;14.77;87.01
17615;BME280;8926;49.720;6.576;2023-09-30T02:56:48;100682.38;;;14.75;86.93
17615;BME280;8926;49.720;6.576;2023-09-30T02:59:14;100681.44;;;14.76;86.41
17615;BME280;8926;49.720;6.576;2023-09-30T03:01:41;100688.56;;;14.74;86.71
17615;BME280;8926;49.720;6.576;2023-09-30T03:04:07;100691.97;;;14.76;86.50
17615;BME280;8926;49.720;6.576;2023-09-30T03:06:33;100697.38;;;14.73;86.86
17615;BME280;8926;49.720;6.576;2023-09-30T03:09:02;100692.97;;;14.74;86.65
17615;BME280;8926;49.720;6.576;2023-09-30T03:11:27;100692.97;;;14.74;86.21
17615;BME280;8926;49.720;6.576;2023-09-30T03:13:53;100694.00;;;14.71;86.25
17615;BME280;8926;49.720;6.576;2023-09-30T03:16:20;100695.69;;;14.72;86.36
17615;BME280;8926;49.720;6.576;2023-09-30T03:18:45;100700.78;;;14.75;86.10
17615;BME280;8926;49.720;6.576;2023-09-30T03:21:14;100700.78;;;14.75;86.31
17615;BME280;8926;49.720;6.576;2023-09-30T03:23:40;100702.66;;;14.73;86.19
17615;BME280;8926;49.720;6.576;2023-09-30T03:26:05;100704.53;;;14.71;86.79
17615;BME280;8926;49.720;6.576;2023-09-30T03:28:38;100702.66;;;14.73;86.57
17615;BME280;8926;49.720;6.576;2023-09-30T03:31:04;100700.59;;;14.78;85.97
17615;BME280;8926;49.720;6.576;2023-09-30T03:33:33;100702.47;;;14.76;85.90
17615;BME280;8926;49.720;6.576;2023-09-30T03:35:59;100704.34;;;14.74;86.16
17615;BME280;8926;49.720;6.576;2023-09-30T03:38:25;100699.25;;;14.71;86.52
17615;BME280;8926;49.720;6.576;2023-09-30T03:40:51;100690.25;;;14.75;86.33
17615;BME280;8926;49.720;6.576;2023-09-30T03:43:19;100698.91;;;14.77;85.72
17615;BME280;8926;49.720;6.576;2023-09-30T03:45:44;100720.72;;;14.79;85.44
17615;BME280;8926;49.720;6.576;2023-09-30T03:48:10;100723.53;;;14.76;85.74
17615;BME280;8926;49.720;6.576;2023-09-30T03:50:35;100726.91;;;14.78;85.49
17615;BME280;8926;49.720;6.576;2023-09-30T03:53:02;100716.38;;;14.78;85.71
17615;BME280;8926;49.720;6.576;2023-09-30T03:55:27;100723.34;;;14.79;86.03
17615;BME280;8926;49.720;6.576;2023-09-30T03:57:55;100729.25;;;14.83;86.78
17615;BME280;8926;49.720;6.576;2023-09-30T04:00:20;100728.22;;;14.85;86.90
17615;BME280;8926;49.720;6.576;2023-09-30T04:02:47;100728.13;;;14.87;87.13
17615;BME280;8926;49.720;6.576;2023-09-30T04:05:14;100738.75;;;14.85;87.22
17615;BME280;8926;49.720;6.576;2023-09-30T04:07:42;100738.56;;;14.88;87.63
17615;BME280;8926;49.720;6.576;2023-09-30T04:10:08;100733.47;;;14.85;87.72
17615;BME280;8926;49.720;6.576;2023-09-30T04:12:34;100726.69;;;14.81;87.47
17615;BME280;8926;49.720;6.576;2023-09-30T04:15:00;100718.09;;;14.79;87.20
17615;BME280;8926;49.720;6.576;2023-09-30T04:17:25;100717.31;;;14.77;87.53
17615;BME280;8926;49.720;6.576;2023-09-30T04:19:52;100710.91;;;14.81;88.08
17615;BME280;8926;49.720;6.576;2023-09-30T04:22:18;100710.75;;;14.84;88.86
17615;BME280;8926;49.720;6.576;2023-09-30T04:24:44;100709.03;;;14.83;87.49
17615;BME280;8926;49.720;6.576;2023-09-30T04:27:09;100714.69;;;14.77;89.09
17615;BME280;8926;49.720;6.576;2023-09-30T04:29:35;100716.56;;;14.75;89.75
17615;BME280;8926;49.720;6.576;2023-09-30T04:32:00;100718.25;;;14.76;89.27
17615;BME280;8926;49.720;6.576;2023-09-30T04:34:26;100713.09;;;14.75;89.89
17615;BME280;8926;49.720;6.576;2023-09-30T04:36:53;100714.09;;;14.72;90.12
17615;BME280;8926;49.720;6.576;2023-09-30T04:39:18;100708.00;;;14.72;89.79
17615;BME280;8926;49.720;6.576;2023-09-30T04:41:44;100715.88;;;14.72;89.90
17615;BME280;8926;49.720;6.576;2023-09-30T04:44:09;100709.59;;;14.74;89.96
17615;BME280;8926;49.720;6.576;2023-09-30T04:46:38;100712.91;;;14.78;90.02
17615;BME280;8926;49.720;6.576;2023-09-30T04:49:11;100716.38;;;14.78;89.92
17615;BME280;8926;49.720;6.576;2023-09-30T04:51:36;100722.59;;;14.77;90.05
17615;BME280;8926;49.720;6.576;2023-09-30T04:54:04;100729.72;;;14.75;90.05
17615;BME280;8926;49.720;6.576;2023-09-30T04:56:32;100730.47;;;14.77;90.26
17615;BME280;8926;49.720;6.576;2023-09-30T04:58:57;100734.72;;;14.80;90.34
17615;BME280;8926;49.720;6.576;2023-09-30T05:01:23;100743.25;;;14.83;89.62
17615;BME280;8926;49.720;6.576;2023-09-30T05:03:50;100748.59;;;14.82;89.08
17615;BME280;8926;49.720;6.576;2023-09-30T05:06:15;100745.97;;;14.82;90.06
17615;BME280;8926;49.720;6.576;2023-09-30T05:08:41;100751.53;;;14.77;90.04
17615;BME280;8926;49.720;6.576;2023-09-30T05:11:06;100763.41;;;14.69;89.18
17615;BME280;8926;49.720;6.576;2023-09-30T05:13:32;100764.44;;;14.66;89.33
17615;BME280;8926;49.720;6.576;2023-09-30T05:15:59;100768.84;;;14.66;89.37
17615;BME280;8926;49.720;6.576;2023-09-30T05:18:24;100776.66;;;14.67;90.03
17615;BME280;8926;49.720;6.576;2023-09-30T05:20:49;100766.88;;;14.69;90.17
17615;BME280;8926;49.720;6.576;2023-09-30T05:23:15;100770.28;;;14.71;89.60
17615;BME280;8926;49.720;6.576;2023-09-30T05:25:40;100771.38;;;14.67;88.87
17615;BME280;8926;49.720;6.576;2023-09-30T05:28:07;100773.44;;;14.62;89.11
17615;BME280;8926;49.720;6.576;2023-09-30T05:30:33;100773.50;;;14.60;89.00
17615;BME280;8926;49.720;6.576;2023-09-30T05:32:59;100777.94;;;14.60;89.19
17615;BME280;8926;49.720;6.576;2023-09-30T05:35:25;100766.63;;;14.58;88.85
17615;BME280;8926;49.720;6.576;2023-09-30T05:37:50;100766.63;;;14.58;88.75
17615;BME280;8926;49.720;6.576;2023-09-30T05:40:20;100772.50;;;14.63;89.28
17615;BME280;8926;49.720;6.576;2023-09-30T05:42:47;100780.22;;;14.66;89.30
17615;BME280;8926;49.720;6.576;2023-09-30T05:45:15;100780.22;;;14.66;87.45
17615;BME280;8926;49.720;6.576;2023-09-30T05:47:40;100788.69;;;14.55;88.42
17615;BME280;8926;49.720;6.576;2023-09-30T05:50:07;100787.03;;;14.54;88.55
17615;BME280;8926;49.720;6.576;2023-09-30T05:52:33;100784.50;;;14.53;89.03
17615;BME280;8926;49.720;6.576;2023-09-30T05:54:59;100787.19;;;14.51;88.25
17615;BME280;8926;49.720;6.576;2023-09-30T05:57:28;100792.13;;;14.42;90.31
17615;BME280;8926;49.720;6.576;2023-09-30T05:59:53;100785.00;;;14.44;90.61
17615;BME280;8926;49.720;6.576;2023-09-30T06:02:19;100792.13;;;14.42;89.89
17615;BME280;8926;49.720;6.576;2023-09-30T06:04:44;100790.25;;;14.44;88.98
17615;BME280;8926;49.720;6.576;2023-09-30T06:07:11;100792.25;;;14.39;90.03
17615;BME280;8926;49.720;6.576;2023-09-30T06:09:36;100786.84;;;14.42;91.42
17615;BME280;8926;49.720;6.576;2023-09-30T06:12:02;100786.53;;;14.48;90.81
17615;BME280;8926;49.720;6.576;2023-09-30T06:14:28;100788.38;;;14.46;89.81
17615;BME280;8926;49.720;6.576;2023-09-30T06:16:56;100794.66;;;14.43;89.50
17615;BME280;8926;49.720;6.576;2023-09-30T06:19:21;100796.53;;;14.41;89.52
17615;BME280;8926;49.720;6.576;2023-09-30T06:21:46;100785.75;;;14.46;90.78
17615;BME280;8926;49.720;6.576;2023-09-30T06:24:12;100793.47;;;14.49;90.20
17615;BME280;8926;49.720;6.576;2023-09-30T06:26:37;100789.06;;;14.49;89.76
17615;BME280;8926;49.720;6.576;2023-09-30T06:29:03;100788.22;;;14.49;89.08
17615;BME280;8926;49.720;6.576;2023-09-30T06:31:28;100795.34;;;14.47;88.64
17615;BME280;8926;49.720;6.576;2023-09-30T06:33:54;100797.38;;;14.42;88.82
17615;BME280;8926;49.720;6.576;2023-09-30T06:36:23;100785.47;;;14.35;90.02
17615;BME280;8926;49.720;6.576;2023-09-30T06:38:51;100781.59;;;14.42;90.50
17615;BME280;8926;49.720;6.576;2023-09-30T06:41:17;100782.13;;;14.48;89.64
17615;BME280;8926;49.720;6.576;2023-09-30T06:43:43;100787.38;;;14.48;89.95
17615;BME280;8926;49.720;6.576;2023-09-30T06:46:09;100784.66;;;14.50;89.92
17615;BME280;8926;49.720;6.576;2023-09-30T06:48:35;100776.69;;;14.51;89.82
17615;BME280;8926;49.720;6.576;2023-09-30T06:51:01;100780.06;;;14.53;89.55
17615;BME280;8926;49.720;6.576;2023-09-30T06:53:27;100779.78;;;14.58;88.61
17615;BME280;8926;49.720;6.576;2023-09-30T06:55:52;100782.63;;;14.55;87.96
17615;BME280;8926;49.720;6.576;2023-09-30T06:58:18;100783.97;;;14.46;88.70
17615;BME280;8926;49.720;6.576;2023-09-30T07:00:47;100791.78;;;14.48;90.56
17615;BME280;8926;49.720;6.576;2023-09-30T07:03:14;100790.50;;;14.55;90.67
17615;BME280;8926;49.720;6.576;2023-09-30T07:05:40;100783.25;;;14.58;89.65
17615;BME280;8926;49.720;6.576;2023-09-30T07:08:05;100788.19;;;14.65;89.29
17615;BME280;8926;49.720;6.576;2023-09-30T07:10:31;100787.00;;;14.70;89.49
17615;BME280;8926;49.720;6.576;2023-09-30T07:12:57;100793.63;;;14.77;89.25
17615;BME280;8926;49.720;6.576;2023-09-30T07:15:22;100807.31;;;14.82;89.61
17615;BME280;8926;49.720;6.576;2023-09-30T07:17:47;100800.03;;;14.87;89.24
17615;BME280;8926;49.720;6.576;2023-09-30T07:20:13;100805.97;;;14.91;89.17
17615;BME280;8926;49.720;6.576;2023-09-30T07:22:39;100797.97;;;14.92;88.90
17615;BME280;8926;49.720;6.576;2023-09-30T07:25:05;100797.81;;;14.96;88.35
17615;BME280;8926;49.720;6.576;2023-09-30T07:27:30;100806.09;;;15.04;89.23
17615;BME280;8926;49.720;6.576;2023-09-30T07:29:57;100805.94;;;15.07;87.87
17615;BME280;8926;49.720;6.576;2023-09-30T07:32:22;100814.94;;;15.03;87.55
17615;BME280;8926;49.720;6.576;2023-09-30T07:34:49;100812.22;;;15.04;87.70
17615;BME280;8926;49.720;6.576;2023-09-30T07:37:14;100813.25;;;15.02;87.80
17615;BME280;8926;49.720;6.576;2023-09-30T07:39:40;100806.97;;;15.04;88.13
17615;BME280;8926;49.720;6.576;2023-09-30T07:42:08;100816.47;;;15.07;87.85
17615;BME280;8926;49.720;6.576;2023-09-30T07:44:34;100817.94;;;15.11;88.08
17615;BME280;8926;49.720;6.576;2023-09-30T07:47:01;100809.13;;;15.12;88.03
17615;BME280;8926;49.720;6.576;2023-09-30T07:49:28;100808.75;;;15.18;88.33
17615;BME280;8926;49.720;6.576;2023-09-30T07:51:54;100822.50;;;15.23;87.78
17615;BME280;8926;49.720;6.576;2023-09-30T07:54:20;100832.69;;;15.29;87.69
17615;BME280;8926;49.720;6.576;2023-09-30T07:56:45;100834.19;;;15.33;87.17
17615;BME280;8926;49.720;6.576;2023-09-30T07:59:10;100834.19;;;15.33;86.18
17615;BME280;8926;49.720;6.576;2023-09-30T08:01:36;100836.38;;;15.41;86.93
17615;BME280;8926;49.720;6.576;2023-09-30T08:04:02;100829.13;;;15.44;86.52
17615;BME280;8926;49.720;6.576;2023-09-30T08:06:27;100820.31;;;15.45;86.19
17615;BME280;8926;49.720;6.576;2023-09-30T08:08:53;100830.84;;;15.45;86.39
17615;BME280;8926;49.720;6.576;2023-09-30T08:11:20;100832.34;;;15.49;86.26
17615;BME280;8926;49.720;6.576;2023-09-30T08:13:46;100827.09;;;15.49;86.43
17615;BME280;8926;49.720;6.576;2023-09-30T08:16:11;100831.59;;;15.47;86.20
17615;BME280;8926;49.720;6.576;2023-09-30T08:18:36;100827.34;;;15.45;86.39
17615;BME280;8926;49.720;6.576;2023-09-30T08:21:02;100830.66;;;15.48;86.51
17615;BME280;8926;49.720;6.576;2023-09-30T08:23:27;100826.06;;;15.52;86.54
17615;BME280;8926;49.720;6.576;2023-09-30T08:25:52;100829.72;;;15.49;85.88
17615;BME280;8926;49.720;6.576;2023-09-30T08:28:19;100836.00;;;15.47;86.64
17615;BME280;8926;49.720;6.576;2023-09-30T08:30:44;100836.19;;;15.44;86.40
17615;BME280;8926;49.720;6.576;2023-09-30T08:33:10;100844.75;;;15.47;85.98
17615;BME280;8926;49.720;6.576;2023-09-30T08:35:36;100842.66;;;15.38;86.13
17615;BME280;8926;49.720;6.576;2023-09-30T08:38:03;100846.72;;;15.44;87.06
17615;BME280;8926;49.720;6.576;2023-09-30T08:40:29;100844.00;;;15.45;86.33
17615;BME280;8926;49.720;6.576;2023-09-30T08:42:54;100848.25;;;15.48;86.84
17615;BME280;8926;49.720;6.576;2023-09-30T08:45:20;100848.59;;;15.57;86.47
17615;BME280;8926;49.720;6.576;2023-09-30T08:47:46;100846.13;;;15.69;86.59
17615;BME280;8926;49.720;6.576;2023-09-30T08:50:11;100847.28;;;15.79;86.31
17615;BME280;8926;49.720;6.576;2023-09-30T08:52:41;100839.94;;;15.84;85.79
17615;BME280;8926;49.720;6.576;2023-09-30T08:55:07;100839.75;;;15.87;85.41
17615;BME280;8926;49.720;6.576;2023-09-30T08:57:37;100833.25;;;15.92;86.15
17615;BME280;8926;49.720;6.576;2023-09-30T09:00:07;100840.69;;;16.00;85.05
17615;BME280;8926;49.720;6.576;2023-09-30T09:02:36;100838.16;;;15.99;85.60
17615;BME280;8926;49.720;6.576;2023-09-30T09:05:02;100833.53;;;16.02;84.73
17615;BME280;8926;49.720;6.576;2023-09-30T09:07:28;100834.09;;;15.93;85.50
17615;BME280;8926;49.720;6.576;2023-09-30T09:10:03;100830.34;;;15.97;85.71
17615;BME280;8926;49.720;6.576;2023-09-30T09:12:30;100829.97;;;16.03;85.42
17615;BME280;8926;49.720;6.576;2023-09-30T09:14:55;100831.84;;;16.01;85.57
17615;BME280;8926;49.720;6.576;2023-09-30T09:17:21;100832.94;;;16.11;85.95
17615;BME280;8926;49.720;6.576;2023-09-30T09:19:59;100828.63;;;16.24;84.41
17615;BME280;8926;49.720;6.576;2023-09-30T09:22:24;100828.63;;;16.24;84.77
17615;BME280;8926;49.720;6.576;2023-09-30T09:24:51;100836.72;;;16.36;84.89
17615;BME280;8926;49.720;6.576;2023-09-30T09:27:16;100846.28;;;16.51;84.26
17615;BME280;8926;49.720;6.576;2023-09-30T09:29:42;100844.84;;;16.59;83.58
17615;BME280;8926;49.720;6.576;2023-09-30T09:34:36;100845.03;;;16.98;82.40
17615;BME280;8926;49.720;6.576;2023-09-30T09:37:19;100840.63;;;17.11;81.83
17615;BME280;8926;49.720;6.576;2023-09-30T09:39:57;100838.13;;;17.22;81.21
17615;BME280;8926;49.720;6.576;2023-09-30T09:42:32;100839.00;;;17.35;80.69
17615;BME280;8926;49.720;6.576;2023-09-30T09:45:01;100830.75;;;17.52;79.25
17615;BME280;8926;49.720;6.576;2023-09-30T09:47:29;100830.38;;;17.71;79.13
17615;BME280;8926;49.720;6.576;2023-09-30T09:49:56;100822.97;;;17.89;78.16
17615;BME280;8926;49.720;6.576;2023-09-30T09:52:23;100819.78;;;18.09;77.63
17615;BME280;8926;49.720;6.576;2023-09-30T09:54:50;100812.72;;;18.34;77.30
17615;BME280;8926;49.720;6.576;2023-09-30T09:57:16;100814.63;;;18.44;75.94
17615;BME280;8926;49.720;6.576;2023-09-30T09:59:43;100802.94;;;18.47;76.34
17615;BME280;8926;49.720;6.576;2023-09-30T10:02:10;100799.13;;;18.98;75.32
17615;BME280;8926;49.720;6.576;2023-09-30T10:04:43;100797.63;;;19.64;72.33
17615;BME280;8926;49.720;6.576;2023-09-30T10:07:11;100796.19;;;19.83;70.55
17615;BME280;8926;49.720;6.576;2023-09-30T10:09:41;100784.16;;;20.55;68.93
17615;BME280;8926;49.720;6.576;2023-09-30T10:12:10;100788.22;;;21.03;66.45
17615;BME280;8926;49.720;6.576;2023-09-30T10:14:35;100784.16;;;21.40;65.86
17615;BME280;8926;49.720;6.576;2023-09-30T10:17:02;100777.44;;;21.66;63.67
17615;BME280;8926;49.720;6.576;2023-09-30T10:19:28;100776.66;;;21.85;63.84
17615;BME280;8926;49.720;6.576;2023-09-30T10:24:44;100772.66;;;22.41;63.29
17615;BME280;8926;49.720;6.576;2023-09-30T10:29:48;100778.03;;;22.98;62.99
17615;BME280;8926;49.720;6.576;2023-09-30T10:32:14;100768.50;;;23.06;58.73
17615;BME280;8926;49.720;6.576;2023-09-30T10:34:47;100765.66;;;23.17;59.45
17615;BME280;8926;49.720;6.576;2023-09-30T10:37:20;100773.78;;;23.25;59.86
17615;BME280;8926;49.720;6.576;2023-09-30T10:39:59;100769.88;;;23.29;58.55
17615;BME280;8926;49.720;6.576;2023-09-30T10:42:49;100769.28;;;23.35;58.38
17615;BME280;8926;49.720;6.576;2023-09-30T10:45:43;100767.13;;;23.48;59.11
17615;BME280;8926;49.720;6.576;2023-09-30T10:50:57;100763.13;;;23.25;58.68
17615;BME280;8926;49.720;6.576;2023-09-30T10:53:27;100763.69;;;23.19;60.55
17615;BME280;8926;49.720;6.576;2023-09-30T10:55:59;100764.00;;;23.06;59.21
17615;BME280;8926;49.720;6.576;2023-09-30T11:01:09;100768.03;;;23.20;60.21
17615;BME280;8926;49.720;6.576;2023-09-30T11:03:35;100765.53;;;23.18;59.73
17615;BME280;8926;49.720;6.576;2023-09-30T11:06:01;100760.50;;;23.06;58.75
17615;BME280;8926;49.720;6.576;2023-09-30T11:08:28;100756.97;;;23.15;59.72
17615;BME280;8926;49.720;6.576;2023-09-30T11:10:57;100758.09;;;23.22;58.65
17615;BME280;8926;49.720;6.576;2023-09-30T11:13:31;100753.56;;;23.32;56.92
17615;BME280;8926;49.720;6.576;2023-09-30T11:16:01;100757.75;;;23.44;57.89
17615;BME280;8926;49.720;6.576;2023-09-30T11:18:28;100745.06;;;23.65;56.42
17615;BME280;8926;49.720;6.576;2023-09-30T11:21:07;100761.94;;;23.47;55.87
17615;BME280;8926;49.720;6.576;2023-09-30T11:23:33;100763.06;;;23.44;56.53
17615;BME280;8926;49.720;6.576;2023-09-30T11:25:58;100764.75;;;23.45;57.01
17615;BME280;8926;49.720;6.576;2023-09-30T11:28:23;100761.66;;;23.59;57.59
17615;BME280;8926;49.720;6.576;2023-09-30T11:30:58;100752.06;;;23.66;56.40
17615;BME280;8926;49.720;6.576;2023-09-30T11:33:25;100749.94;;;23.80;56.36
17615;BME280;8926;49.720;6.576;2023-09-30T11:36:01;100747.03;;;23.91;55.36
17615;BME280;8926;49.720;6.576;2023-09-30T11:38:30;100744.88;;;24.04;54.51
17615;BME280;8926;49.720;6.576;2023-09-30T11:41:03;100746.47;;;23.97;54.67
17615;BME280;8926;49.720;6.576;2023-09-30T11:43:34;100742.84;;;24.16;54.63
17615;BME280;8926;49.720;6.576;2023-09-30T11:46:08;100745.28;;;24.37;53.60
17615;BME280;8926;49.720;6.576;2023-09-30T11:48:56;100743.88;;;24.32;52.40
17615;BME280;8926;49.720;6.576;2023-09-30T11:51:22;100744.88;;;24.49;52.34
17615;BME280;8926;49.720;6.576;2023-09-30T11:53:51;100737.19;;;24.64;51.67
17615;BME280;8926;49.720;6.576;2023-09-30T11:56:18;100727.09;;;24.76;50.99
17615;BME280;8926;49.720;6.576;2023-09-30T11:58:43;100723.13;;;24.62;51.26
17615;BME280;8926;49.720;6.576;2023-09-30T12:01:09;100719.88;;;24.68;50.81
17615;BME280;8926;49.720;6.576;2023-09-30T12:03:39;100716.94;;;24.79;52.41
17615;BME280;8926;49.720;6.576;2023-09-30T12:06:05;100722.44;;;24.78;49.66
17615;BME280;8926;49.720;6.576;2023-09-30T12:08:31;100716.81;;;24.63;49.67
17615;BME280;8926;49.720;6.576;2023-09-30T12:10:57;100711.47;;;24.63;50.58
17615;BME280;8926;49.720;6.576;2023-09-30T12:13:23;100708.22;;;24.77;51.27
17615;BME280;8926;49.720;6.576;2023-09-30T12:15:49;100704.63;;;24.86;50.69
17615;BME280;8926;49.720;6.576;2023-09-30T12:18:14;100701.41;;;25.00;49.05
17615;BME280;8926;49.720;6.576;2023-09-30T12:20:42;100704.00;;;24.92;50.00
17615;BME280;8926;49.720;6.576;2023-09-30T12:23:09;100699.28;;;24.86;51.07
17615;BME280;8926;49.720;6.576;2023-09-30T12:25:34;100699.47;;;24.67;50.61
17615;BME280;8926;49.720;6.576;2023-09-30T12:28:02;100701.00;;;24.52;49.15
17615;BME280;8926;49.720;6.576;2023-09-30T12:30:28;100706.63;;;24.49;49.90
17615;BME280;8926;49.720;6.576;2023-09-30T12:32:53;100709.75;;;24.44;50.44
17615;BME280;8926;49.720;6.576;2023-09-30T12:35:20;100710.69;;;24.35;47.88
17615;BME280;8926;49.720;6.576;2023-09-30T12:37:46;100697.50;;;24.33;49.20
17615;BME280;8926;49.720;6.576;2023-09-30T12:40:11;100707.13;;;24.17;48.43
17615;BME280;8926;49.720;6.576;2023-09-30T12:42:39;100702.41;;;24.11;47.71
17615;BME280;8926;49.720;6.576;2023-09-30T12:45:05;100694.34;;;23.93;46.97
17615;BME280;8926;49.720;6.576;2023-09-30T12:47:30;100696.09;;;23.84;48.34
17615;BME280;8926;49.720;6.576;2023-09-30T12:49:56;100686.03;;;23.78;48.31
17615;BME280;8926;49.720;6.576;2023-09-30T12:52:22;100685.78;;;23.72;48.00
17615;BME280;8926;49.720;6.576;2023-09-30T12:54:49;100682.41;;;23.69;48.39
17615;BME280;8926;49.720;6.576;2023-09-30T12:57:14;100678.75;;;23.71;49.12
17615;BME280;8926;49.720;6.576;2023-09-30T12:59:43;100674.91;;;23.55;48.78
17615;BME280;8926;49.720;6.576;2023-09-30T13:02:11;100666.47;;;23.50;48.26
17615;BME280;8926;49.720;6.576;2023-09-30T13:04:36;100662.97;;;23.59;47.64
17615;BME280;8926;49.720;6.576;2023-09-30T13:07:02;100659.44;;;23.59;47.37
17615;BME280;8926;49.720;6.576;2023-09-30T13:09:28;100658.03;;;23.64;48.13
17615;BME280;8926;49.720;6.576;2023-09-30T13:11:53;100647.94;;;23.58;48.88